Flight Track Log - Related Links

Times and Time Zones

All times are in EDT time to prevent confusion due to time zone crossing. See the KAP3 flight status page for this flight to view local times or setup timezone preferences in your user account.

Time Position Orientation Groundspeed Altitude Reporting Facility
EDT Latitude Longitude Course Direction KTS MPH feet Rate Location/Type
Sun 04:22:36 PM 42.3667 -71.0167 236° Southwest 95 109 600  Level KA90
Sun 04:23:41 PM 42.3500 -71.0500 236° Southwest 89 102 1,500 810 Climbing KA90
Sun 04:24:42 PM 42.3333 -71.0667 216° Southwest 85 98 2,300 645 Climbing KA90
Sun 04:25:42 PM 42.3000 -71.0833 200° South 90 104 2,800 600 Climbing KA90
Sun 04:26:42 PM 42.2833 -71.0500 124° Southeast 111 128 3,500 700 Climbing KA90
Sun 04:27:42 PM 42.2667 -71.0167 124° Southeast 111 128 4,200 600 Climbing KA90
Sun 04:28:42 PM 42.2333 -70.9833 143° Southeast 152 175 4,700 400 Climbing KA90
Sun 04:29:42 PM 42.2167 -70.9333 114° Southeast 179 206 5,000 142 Climbing KA90
Sun 04:30:49 PM 42.2000 -70.8667 109° East 183 211 5,000  Level KA90
Sun 04:31:43 PM 42.1833 -70.8000 109° East 189 217 5,000 -50 Level KA90
Sun 04:32:48 PM 42.1667 -70.7333 109° East 196 226 4,900 -92 Descending KA90
Sun 04:34:00 PM 42.1603 -70.6656 97° East  Level FlightAware Approximate
Sun 04:41:00 PM 41.8962 -70.4874 114° Southeast  Level Estimated
Sun 04:42:00 PM 41.9105 -70.4340 70° East  Level FlightAware Approximate
Sun 04:43:00 PM 41.9247 -70.3806 70° East  Level FlightAware Approximate
Sun 04:44:00 PM 41.9389 -70.3272 70° East  Level FlightAware Approximate
Sun 04:45:00 PM 41.9532 -70.2738 70° East  Level FlightAware Approximate
Sun 04:46:00 PM 41.9120 -70.2611 180° South  Level Estimated
Sun 04:47:00 PM 41.8750 -70.2339 151° Southeast  Level FlightAware Approximate
Sun 04:48:00 PM 41.8379 -70.2068 151° Southeast  Level FlightAware Approximate
Sun 04:49:00 PM 41.8009 -70.1797 151° Southeast  Level FlightAware Approximate
Sun 04:50:00 PM 41.7638 -70.1526 151° Southeast  Level FlightAware Approximate
Sun 04:51:00 PM 41.7268 -70.1256 151° Southeast  Level FlightAware Approximate
Sun 04:52:00 PM 41.6897 -70.0985 151° Southeast  Level FlightAware Approximate
Sun 04:53:00 PM 41.6526 -70.0716 151° Southeast  Level FlightAware Approximate
Sun 04:54:00 PM 41.6155 -70.0446 151° Southeast  Level FlightAware Approximate
Sun 04:55:00 PM 41.5784 -70.0177 151° Southeast  Level FlightAware Approximate
Sun 04:56:00 PM 41.5712 -70.0391 189° South  Level FlightAware Approximate
Sun 04:57:00 PM 41.5294 -70.0474 189° South  Level FlightAware Approximate
Sun 04:58:00 PM 41.4874 -70.0500 180° South  Level FlightAware Approximate
Sun 04:59:00 PM 41.4451 -70.0500 180° South  Level FlightAware Approximate
Sun 05:00:00 PM 41.4030 -70.0500 180° South  Level FlightAware Approximate
Sun 05:01:00 PM 41.3607 -70.0500 180° South  Level FlightAware Approximate
Sun 05:02:00 PM 41.3186 -70.0500 180° South  Level FlightAware Approximate
Sun 05:03:00 PM 41.2763 -70.0500 180° South  Level FlightAware Approximate
Sun 05:04:00 PM 41.2500 -70.0500 180° South  Level FlightAware Approximate
Sun 05:05:00 PM 41.2531 -70.0603 180° South  Level Estimated
Sun 05:06:00 PM 41.2531 -70.0603 180° South  Level Estimated
Sun 05:07:00 PM 41.2531 -70.0603 180° South  Level Estimated
Sun 05:08:00 PM 41.2531 -70.0603 180° South  Level Estimated
Sun 05:09:00 PM 41.2531 -70.0603 180° South  Level Estimated
Sun 05:10:00 PM 41.2531 -70.0603 180° South  Level Estimated
Sun 05:11:00 PM 41.2531 -70.0603 180° South  Level Estimated
Sun 05:12:00 PM 41.2531 -70.0603 180° South  Level Estimated
Sun 05:13:00 PM 41.2531 -70.0603 180° South  Level Estimated
Sun 05:14:00 PM 41.2531 -70.0603 180° South  Level Estimated
Sun 05:15:00 PM 41.2531 -70.0603 180° South  Level Estimated

Login

Don't have an account? Register now (free) for customized features, flight alerts, and more!